createdAt,value
2022-11-14T00:00:59.682Z,4.26
2022-11-14T00:03:26.302Z,4.25
2022-11-14T00:05:52.851Z,4.29
2022-11-14T00:08:23.772Z,4.29
2022-11-14T00:10:51.410Z,4.18
2022-11-14T00:13:19.898Z,3.97
2022-11-14T00:15:54.427Z,3.98
2022-11-14T00:18:21.824Z,4.01
2022-11-14T00:20:52.873Z,4.03
2022-11-14T00:23:20.788Z,3.97
2022-11-14T00:25:47.717Z,3.62
2022-11-14T00:28:14.670Z,3.94
2022-11-14T00:30:41.268Z,3.64
2022-11-14T00:33:07.943Z,3.48
2022-11-14T00:35:34.498Z,3.57
2022-11-14T00:38:01.136Z,3.58
2022-11-14T00:40:27.730Z,3.48
2022-11-14T00:42:54.511Z,3.51
2022-11-14T00:45:21.249Z,3.52
2022-11-14T00:47:47.816Z,3.59
2022-11-14T00:50:16.328Z,3.63
2022-11-14T00:52:42.896Z,3.68
2022-11-14T00:55:09.543Z,3.71
2022-11-14T00:57:36.102Z,3.50
2022-11-14T01:00:03.884Z,3.32
2022-11-14T01:02:30.445Z,3.95
2022-11-14T01:04:57.063Z,4.02
2022-11-14T01:07:23.611Z,1.79
2022-11-14T01:09:50.168Z,4.11
2022-11-14T01:12:16.718Z,3.89
2022-11-14T01:14:43.281Z,4.09
2022-11-14T01:17:09.849Z,3.94
2022-11-14T01:19:36.438Z,3.69
2022-11-14T01:22:06.289Z,3.54
2022-11-14T01:24:33.976Z,3.83
2022-11-14T01:27:00.827Z,3.32
2022-11-14T01:29:27.453Z,3.84
2022-11-14T01:31:54.098Z,3.95
2022-11-14T01:34:20.713Z,3.19
2022-11-14T01:36:47.288Z,3.02
2022-11-14T01:39:13.849Z,1.37
2022-11-14T01:41:40.542Z,1.58
2022-11-14T01:44:13.732Z,2.17
2022-11-14T01:46:41.602Z,2.24
2022-11-14T01:49:20.832Z,2.25
2022-11-14T01:51:55.137Z,1.96
2022-11-14T01:54:29.244Z,1.96
2022-11-14T01:56:59.287Z,2.37
2022-11-14T01:59:32.199Z,2.19
2022-11-14T02:02:04.018Z,2.40
2022-11-14T02:04:35.298Z,1.97
2022-11-14T02:07:04.659Z,2.36
2022-11-14T02:09:36.356Z,2.49
2022-11-14T02:12:07.407Z,2.55
2022-11-14T02:14:36.312Z,2.50
2022-11-14T02:17:27.842Z,2.50
2022-11-14T02:20:02.182Z,2.47
2022-11-14T02:22:31.264Z,2.61
2022-11-14T02:24:57.834Z,2.51
2022-11-14T02:27:24.931Z,2.67
2022-11-14T02:29:51.513Z,2.81
2022-11-14T02:32:18.091Z,2.86
2022-11-14T02:34:44.652Z,2.77
2022-11-14T02:37:11.280Z,2.78
2022-11-14T02:39:38.982Z,2.97
2022-11-14T02:42:05.676Z,2.72
2022-11-14T02:44:32.292Z,2.93
2022-11-14T02:46:58.892Z,2.77
2022-11-14T02:49:25.454Z,2.68
2022-11-14T02:51:52.009Z,2.72
2022-11-14T02:54:18.588Z,2.50
2022-11-14T02:56:45.141Z,2.54
2022-11-14T02:59:11.706Z,1.87
2022-11-14T03:01:38.338Z,2.58
2022-11-14T03:04:05.257Z,2.68
2022-11-14T03:06:31.791Z,2.56
2022-11-14T03:08:58.399Z,2.18
2022-11-14T03:11:24.962Z,1.94
2022-11-14T03:13:51.545Z,2.00
2022-11-14T03:16:18.117Z,0.72
2022-11-14T03:18:44.679Z,1.21
2022-11-14T03:21:13.891Z,1.07
2022-11-14T03:23:40.547Z,1.46
2022-11-14T03:26:09.086Z,1.56
2022-11-14T03:28:36.736Z,1.08
2022-11-14T03:31:03.778Z,1.84
2022-11-14T03:33:30.351Z,1.89
2022-11-14T03:35:56.992Z,1.80
2022-11-14T03:38:23.935Z,1.61
2022-11-14T03:40:51.487Z,1.74
2022-11-14T03:43:21.863Z,1.81
2022-11-14T03:45:48.775Z,1.89
2022-11-14T03:48:15.334Z,2.00
2022-11-14T03:50:42.540Z,1.77
2022-11-14T03:53:09.574Z,0.77
2022-11-14T03:55:36.215Z,1.00
2022-11-14T03:58:02.749Z,0.84
2022-11-14T04:00:29.427Z,0.70
2022-11-14T04:02:57.466Z,0.55
2022-11-14T04:05:24.685Z,0.57
2022-11-14T04:07:51.509Z,1.19
2022-11-14T04:10:18.642Z,0.57
2022-11-14T04:12:52.810Z,1.39
2022-11-14T04:15:20.293Z,1.58
2022-11-14T04:17:47.388Z,1.73
2022-11-14T04:20:15.439Z,1.80
2022-11-14T04:22:42.064Z,1.93
2022-11-14T04:25:09.431Z,1.83
2022-11-14T04:27:36.030Z,1.58
2022-11-14T04:30:03.266Z,2.03
2022-11-14T04:32:30.209Z,2.16
2022-11-14T04:34:56.810Z,1.97
2022-11-14T04:37:23.953Z,1.84
2022-11-14T04:39:50.557Z,1.35
2022-11-14T04:42:17.110Z,1.88
2022-11-14T04:44:43.710Z,1.92
2022-11-14T04:47:10.357Z,1.90
2022-11-14T04:49:36.912Z,1.90
2022-11-14T04:52:03.497Z,1.92
2022-11-14T04:54:30.036Z,1.94
2022-11-14T04:56:56.617Z,1.52
2022-11-14T04:59:23.223Z,1.87
2022-11-14T05:01:49.885Z,1.87
2022-11-14T05:04:16.467Z,1.77
2022-11-14T05:06:43.267Z,1.87
2022-11-14T05:09:09.885Z,1.86
2022-11-14T05:11:36.464Z,1.87
2022-11-14T05:14:03.101Z,1.35
2022-11-14T05:16:29.697Z,1.73
2022-11-14T05:18:56.273Z,1.82
2022-11-14T05:21:22.846Z,1.84
2022-11-14T05:23:49.417Z,1.81
2022-11-14T05:26:17.493Z,1.90
2022-11-14T05:28:44.384Z,1.94
2022-11-14T05:31:22.250Z,2.00
2022-11-14T05:33:48.866Z,2.06
2022-11-14T05:36:16.995Z,1.90
2022-11-14T05:38:43.668Z,1.80
2022-11-14T05:41:16.214Z,2.10
2022-11-14T05:43:43.001Z,1.46
2022-11-14T05:46:11.534Z,2.22
2022-11-14T05:48:39.007Z,2.30
2022-11-14T05:51:07.038Z,2.49
2022-11-14T05:53:33.872Z,2.64
2022-11-14T05:56:02.499Z,2.77
2022-11-14T05:58:29.413Z,2.77
2022-11-14T06:01:22.624Z,2.94
2022-11-14T06:03:49.461Z,3.03
2022-11-14T06:06:19.841Z,3.18
2022-11-14T06:08:46.796Z,3.21
2022-11-14T06:11:16.250Z,2.84
2022-11-14T06:13:43.717Z,3.51
2022-11-14T06:16:12.902Z,3.61
2022-11-14T06:18:39.976Z,3.61
2022-11-14T06:21:10.914Z,3.99
2022-11-14T06:23:38.001Z,3.69
2022-11-14T06:26:07.376Z,4.29
2022-11-14T06:28:34.561Z,4.46
2022-11-14T06:31:03.327Z,4.57
2022-11-14T06:33:34.121Z,4.51
2022-11-14T06:36:02.625Z,4.77
2022-11-14T06:38:32.226Z,4.31
2022-11-14T06:41:16.240Z,3.87
2022-11-14T06:43:44.813Z,3.85
2022-11-14T06:46:14.324Z,4.20
2022-11-14T06:48:41.778Z,4.28
2022-11-14T06:51:09.673Z,4.75
2022-11-14T06:53:37.518Z,4.39
2022-11-14T06:56:05.616Z,5.04
2022-11-14T06:58:35.013Z,5.04
2022-11-14T07:01:14.027Z,4.11
2022-11-14T07:03:41.367Z,5.08
2022-11-14T07:06:09.585Z,5.76
2022-11-14T07:08:36.359Z,5.88
2022-11-14T07:11:04.448Z,6.39
2022-11-14T07:13:31.612Z,6.61
2022-11-14T07:15:58.670Z,6.82
2022-11-14T07:18:25.721Z,7.02
2022-11-14T07:21:00.835Z,6.42
2022-11-14T07:23:28.253Z,7.51
2022-11-14T07:25:54.831Z,7.39
2022-11-14T07:28:21.479Z,7.64
2022-11-14T07:30:48.262Z,7.99
2022-11-14T07:33:14.878Z,6.03
2022-11-14T07:35:41.836Z,8.11
2022-11-14T07:38:08.453Z,8.29
2022-11-14T07:40:35.066Z,7.11
2022-11-14T07:43:02.467Z,8.53
2022-11-14T07:45:29.690Z,9.10
2022-11-14T07:48:01.248Z,9.10
2022-11-14T07:50:29.902Z,9.38
2022-11-14T07:52:57.646Z,9.57
2022-11-14T07:55:24.803Z,9.38
2022-11-14T07:57:54.955Z,9.54
2022-11-14T08:00:21.967Z,9.94
2022-11-14T08:02:48.758Z,9.29
2022-11-14T08:05:15.501Z,9.39
2022-11-14T08:07:42.096Z,9.57
2022-11-14T08:10:09.157Z,9.79
2022-11-14T08:12:35.854Z,9.79
2022-11-14T08:15:02.448Z,9.96
2022-11-14T08:17:29.170Z,9.69
2022-11-14T08:19:55.739Z,10.36
2022-11-14T08:22:44.462Z,10.80
2022-11-14T08:25:11.048Z,10.73
2022-11-14T08:27:37.847Z,10.96
2022-11-14T08:30:04.894Z,10.43
2022-11-14T08:32:31.577Z,10.85
2022-11-14T08:34:58.138Z,10.91
2022-11-14T08:38:04.127Z,11.02
2022-11-14T08:40:31.543Z,10.94
2022-11-14T08:43:02.172Z,10.90
2022-11-14T08:45:30.160Z,11.32
2022-11-14T08:47:56.924Z,10.67
2022-11-14T08:50:23.925Z,11.53
2022-11-14T08:52:52.149Z,11.13
2022-11-14T08:55:20.417Z,11.97
2022-11-14T08:57:49.606Z,10.53
2022-11-14T09:00:17.314Z,12.12
2022-11-14T09:02:44.192Z,12.48
2022-11-14T09:05:11.420Z,12.34
2022-11-14T09:07:38.244Z,11.95
2022-11-14T09:10:05.511Z,13.02
2022-11-14T09:12:32.322Z,13.23
2022-11-14T09:14:58.955Z,13.24
2022-11-14T09:17:25.595Z,12.97
2022-11-14T09:19:52.246Z,13.35
2022-11-14T09:22:18.915Z,12.86
2022-11-14T09:24:47.564Z,12.60
2022-11-14T09:27:14.322Z,12.49
2022-11-14T09:29:41.239Z,12.13
2022-11-14T09:32:07.904Z,12.74
2022-11-14T09:34:34.517Z,13.17
2022-11-14T09:37:01.147Z,13.42
2022-11-14T09:39:27.844Z,12.97
2022-11-14T09:42:16.956Z,13.87
2022-11-14T09:45:06.423Z,13.76
2022-11-14T09:47:42.604Z,13.98
2022-11-14T09:50:26.495Z,14.20
2022-11-14T09:52:57.895Z,14.15
2022-11-14T09:55:36.259Z,13.23
2022-11-14T09:58:04.524Z,14.09
2022-11-14T10:01:09.942Z,14.44
2022-11-14T10:03:56.596Z,13.80
2022-11-14T10:06:54.939Z,14.14
2022-11-14T10:09:46.979Z,11.62
2022-11-14T10:12:31.457Z,13.59
2022-11-14T10:15:05.494Z,13.69
2022-11-14T10:17:49.743Z,13.70
2022-11-14T10:20:29.772Z,14.21
2022-11-14T10:23:29.994Z,14.53
2022-11-14T10:26:09.486Z,14.68
2022-11-14T10:29:00.302Z,12.39
2022-11-14T10:32:02.435Z,12.93
2022-11-14T10:34:39.328Z,15.24
2022-11-14T10:37:17.490Z,15.32
2022-11-14T10:39:57.678Z,14.80
2022-11-14T10:42:43.145Z,14.40
2022-11-14T10:45:26.808Z,14.53
2022-11-14T10:48:03.489Z,14.24
2022-11-14T10:50:58.197Z,14.32
2022-11-14T10:53:35.427Z,13.75
2022-11-14T10:56:04.745Z,14.38
2022-11-14T10:58:38.418Z,14.36
2022-11-14T11:01:37.537Z,15.28
2022-11-14T11:04:29.027Z,15.68
2022-11-14T11:07:39.961Z,16.02
2022-11-14T11:10:25.529Z,15.76
2022-11-14T11:12:55.160Z,15.41
2022-11-14T11:15:23.571Z,16.72
2022-11-14T11:18:23.661Z,16.59
2022-11-14T11:21:10.259Z,16.92
2022-11-14T11:23:48.668Z,15.99
2022-11-14T11:26:32.880Z,16.39
2022-11-14T11:29:04.369Z,16.40
2022-11-14T11:31:53.203Z,16.66
2022-11-14T11:34:25.270Z,16.44
2022-11-14T11:37:00.148Z,16.07
2022-11-14T11:39:30.610Z,14.16
2022-11-14T11:42:09.429Z,15.86
2022-11-14T11:44:47.646Z,16.59
2022-11-14T11:47:17.881Z,16.72
2022-11-14T11:49:54.569Z,16.68
2022-11-14T11:52:33.711Z,16.88
2022-11-14T11:55:24.796Z,17.24
2022-11-14T11:58:01.463Z,16.77
2022-11-14T12:00:28.481Z,17.08
2022-11-14T12:02:55.585Z,16.98
2022-11-14T12:05:29.923Z,17.47
2022-11-14T12:08:18.527Z,17.26
2022-11-14T12:10:49.174Z,16.98
2022-11-14T12:13:24.813Z,17.46
2022-11-14T12:15:57.250Z,17.10
2022-11-14T12:18:32.750Z,16.25
2022-11-14T12:21:15.590Z,16.12
2022-11-14T12:24:03.354Z,16.15
2022-11-14T12:27:00.771Z,16.13
2022-11-14T12:29:45.866Z,16.48
2022-11-14T12:32:18.196Z,16.66
2022-11-14T12:34:47.842Z,16.31
2022-11-14T12:37:23.984Z,16.74
2022-11-14T12:40:08.986Z,15.88
2022-11-14T12:42:35.830Z,16.45
2022-11-14T12:45:02.502Z,16.55
2022-11-14T12:47:29.611Z,16.82
2022-11-14T12:49:59.132Z,16.32
2022-11-14T12:52:41.137Z,16.54
2022-11-14T12:55:26.150Z,16.73
2022-11-14T12:58:08.965Z,16.80
2022-11-14T13:01:00.221Z,16.34
2022-11-14T13:03:37.604Z,16.75
2022-11-14T13:06:09.642Z,16.34
2022-11-14T13:08:58.617Z,16.33
2022-11-14T13:11:51.368Z,16.46
2022-11-14T13:14:38.316Z,15.13
2022-11-14T13:17:32.462Z,16.48
2022-11-14T13:20:17.806Z,16.66
2022-11-14T13:22:46.617Z,16.11
2022-11-14T13:25:22.118Z,16.07
2022-11-14T13:31:18.164Z,15.78
2022-11-14T13:33:50.478Z,15.88
2022-11-14T13:36:29.345Z,15.73
2022-11-14T13:38:58.818Z,15.62
2022-11-14T13:41:47.984Z,15.59
2022-11-14T13:44:23.934Z,15.55
2022-11-14T13:47:08.984Z,15.37
2022-11-14T13:49:52.557Z,15.57
2022-11-14T13:52:19.611Z,15.34
2022-11-14T13:54:49.125Z,15.42
2022-11-14T13:57:39.039Z,15.20
2022-11-14T14:00:19.967Z,15.75
2022-11-14T14:02:56.316Z,15.70
2022-11-14T14:05:31.406Z,15.71
2022-11-14T14:08:20.031Z,15.58
2022-11-14T14:11:18.499Z,15.43
2022-11-14T14:14:22.625Z,15.25
2022-11-14T14:17:14.776Z,14.85
2022-11-14T14:20:11.957Z,14.91
2022-11-14T14:22:55.976Z,14.14
2022-11-14T14:25:26.648Z,14.66
2022-11-14T14:28:22.816Z,14.19
2022-11-14T14:31:23.486Z,13.93
2022-11-14T14:33:51.649Z,14.21
2022-11-14T14:36:26.000Z,13.74
2022-11-14T14:39:21.247Z,14.13
2022-11-14T14:41:49.639Z,13.94
2022-11-14T14:44:24.060Z,13.94
2022-11-14T14:46:51.686Z,13.92
2022-11-14T14:49:38.224Z,13.79
2022-11-14T14:52:31.091Z,13.61
2022-11-14T14:54:58.927Z,13.54
2022-11-14T14:57:25.862Z,13.50
2022-11-14T15:00:29.643Z,13.54
2022-11-14T15:02:57.068Z,13.57
2022-11-14T15:05:29.149Z,13.53
2022-11-14T15:07:58.750Z,13.13
2022-11-14T15:10:32.198Z,12.95
2022-11-14T15:12:59.062Z,13.15
2022-11-14T15:15:27.308Z,12.82
2022-11-14T15:17:55.519Z,13.04
2022-11-14T15:20:24.939Z,12.91
2022-11-14T15:23:19.866Z,12.92
2022-11-14T15:25:47.113Z,12.81
2022-11-14T15:28:20.386Z,12.56
2022-11-14T15:30:57.898Z,12.29
2022-11-14T15:33:33.936Z,12.29
2022-11-14T15:36:17.751Z,12.25
2022-11-14T15:39:02.701Z,12.13
2022-11-14T15:41:31.105Z,12.01
2022-11-14T15:44:05.692Z,11.92
2022-11-14T15:46:40.319Z,12.04
2022-11-14T15:49:09.866Z,12.13
2022-11-14T15:51:46.868Z,12.04
2022-11-14T15:54:41.278Z,11.93
2022-11-14T15:57:15.631Z,11.81
2022-11-14T15:59:42.320Z,11.86
2022-11-14T16:02:18.018Z,11.76
2022-11-14T16:04:47.859Z,11.65
2022-11-14T16:07:16.163Z,11.26
2022-11-14T16:09:43.129Z,11.55
2022-11-14T16:12:09.769Z,11.46
2022-11-14T16:14:36.602Z,11.43
2022-11-14T16:17:03.578Z,11.40
2022-11-14T16:19:30.257Z,11.38
2022-11-14T16:22:03.641Z,11.38
2022-11-14T16:24:34.383Z,11.36
2022-11-14T16:27:01.654Z,11.28
2022-11-14T16:29:28.333Z,11.14
2022-11-14T16:31:55.366Z,10.67
2022-11-14T16:34:25.139Z,10.75
2022-11-14T16:36:59.892Z,11.05
2022-11-14T16:39:26.769Z,11.11
2022-11-14T16:41:53.395Z,10.72
2022-11-14T16:44:20.019Z,10.73
2022-11-14T16:46:46.608Z,11.04
2022-11-14T16:49:14.981Z,11.03
2022-11-14T16:51:49.470Z,11.00
2022-11-14T16:54:18.212Z,11.13
2022-11-14T16:56:45.102Z,10.92
2022-11-14T16:59:11.787Z,11.05
2022-11-14T17:01:38.732Z,10.54
2022-11-14T17:04:06.045Z,10.83
2022-11-14T17:06:32.667Z,10.73
2022-11-14T17:08:59.979Z,10.67
2022-11-14T17:11:27.575Z,10.33
2022-11-14T17:13:56.189Z,10.19
2022-11-14T17:16:23.128Z,10.20
2022-11-14T17:18:54.185Z,10.18
2022-11-14T17:21:21.695Z,10.19
2022-11-14T17:23:57.175Z,10.26
2022-11-14T17:26:23.934Z,10.10
2022-11-14T17:28:50.592Z,10.07
2022-11-14T17:31:17.553Z,9.92
2022-11-14T17:33:44.475Z,9.54
2022-11-14T17:36:11.588Z,9.69
2022-11-14T17:38:38.829Z,9.68
2022-11-14T17:41:08.429Z,10.03
2022-11-14T17:43:39.523Z,10.01
2022-11-14T17:46:12.561Z,9.36
2022-11-14T17:48:40.810Z,9.93
2022-11-14T17:51:10.382Z,10.01
2022-11-14T17:53:37.514Z,10.04
2022-11-14T17:56:04.561Z,10.06
2022-11-14T17:58:32.368Z,10.00
2022-11-14T18:00:59.861Z,10.03
2022-11-14T18:03:27.251Z,10.10
2022-11-14T18:06:03.913Z,10.08
2022-11-14T18:08:30.836Z,10.15
2022-11-14T18:11:05.424Z,10.21
2022-11-14T18:13:32.727Z,10.09
2022-11-14T18:16:57.493Z,10.19
2022-11-14T18:19:18.977Z,10.16
2022-11-14T18:21:49.111Z,10.16
2022-11-14T18:24:18.912Z,10.13
2022-11-14T18:26:45.574Z,10.21
2022-11-14T18:29:12.312Z,10.20
2022-11-14T18:31:39.006Z,10.07
2022-11-14T18:34:06.373Z,10.12
2022-11-14T18:36:32.976Z,9.81
2022-11-14T18:38:59.489Z,10.07
2022-11-14T18:41:26.262Z,9.84
2022-11-14T18:43:56.000Z,9.53
2022-11-14T18:46:24.535Z,10.09
2022-11-14T18:48:57.313Z,10.02
2022-11-14T18:51:26.855Z,10.11
2022-11-14T18:53:55.404Z,9.67
2022-11-14T18:56:23.072Z,9.73
2022-11-14T18:58:56.385Z,10.23
2022-11-14T19:01:29.687Z,10.30
2022-11-14T19:03:57.290Z,10.34
2022-11-14T19:06:24.512Z,10.21
2022-11-14T19:08:51.242Z,9.81
2022-11-14T19:11:37.022Z,10.06
2022-11-14T19:14:05.701Z,9.70
2022-11-14T19:16:34.068Z,10.30
2022-11-14T19:19:01.707Z,10.02
2022-11-14T19:21:29.154Z,10.32
2022-11-14T19:23:56.694Z,10.03
2022-11-14T19:26:23.747Z,10.39
2022-11-14T19:28:50.421Z,10.43
2022-11-14T19:31:17.948Z,10.41
2022-11-14T19:33:45.408Z,10.53
2022-11-14T19:36:45.339Z,10.50
2022-11-14T19:39:08.441Z,10.39
2022-11-14T19:41:35.113Z,10.40
2022-11-14T19:44:02.488Z,10.59
2022-11-14T19:46:29.556Z,10.54
2022-11-14T19:48:58.123Z,10.54
2022-11-14T19:51:25.573Z,10.50
2022-11-14T19:53:55.776Z,10.58
2022-11-14T19:56:23.477Z,10.54
2022-11-14T19:58:51.690Z,10.54
2022-11-14T20:01:21.485Z,10.58
2022-11-14T20:03:56.863Z,10.45
2022-11-14T20:06:30.182Z,10.02
2022-11-14T20:08:58.501Z,10.38
2022-11-14T20:11:27.932Z,10.39
2022-11-14T20:13:56.004Z,10.35
2022-11-14T20:16:34.186Z,10.50
2022-11-14T20:19:01.825Z,10.47
2022-11-14T20:21:31.449Z,10.54
2022-11-14T20:23:58.706Z,10.52
2022-11-14T20:26:25.879Z,10.20
2022-11-14T20:28:54.007Z,10.22
2022-11-14T20:31:23.803Z,10.43
2022-11-14T20:33:52.058Z,10.55
2022-11-14T20:36:21.557Z,10.60
2022-11-14T20:38:49.130Z,10.53
2022-11-14T20:41:16.183Z,10.01
2022-11-14T20:43:43.544Z,10.49
2022-11-14T20:46:15.073Z,10.57
2022-11-14T20:48:42.758Z,10.53
2022-11-14T20:51:11.979Z,10.60
2022-11-14T20:53:38.792Z,10.59
2022-11-14T20:56:05.625Z,10.56
2022-11-14T20:58:32.794Z,10.61
2022-11-14T21:00:59.670Z,10.67
2022-11-14T21:03:26.661Z,10.70
2022-11-14T21:05:53.588Z,10.64
2022-11-14T21:08:20.504Z,10.50
2022-11-14T21:10:50.310Z,10.69
2022-11-14T21:13:37.436Z,10.69
2022-11-14T21:16:07.338Z,10.60
2022-11-14T21:18:34.612Z,10.68
2022-11-14T21:21:10.779Z,10.53
2022-11-14T21:23:37.860Z,10.63
2022-11-14T21:26:08.609Z,10.68
2022-11-14T21:28:37.599Z,10.73
2022-11-14T21:31:36.839Z,10.62
2022-11-14T21:34:10.493Z,10.66
2022-11-14T21:36:44.802Z,10.68
2022-11-14T21:39:15.161Z,10.31
2022-11-14T21:41:43.428Z,10.82
2022-11-14T21:44:14.676Z,10.37
2022-11-14T21:46:41.474Z,10.76
2022-11-14T21:49:08.237Z,10.51
2022-11-14T21:51:35.116Z,10.72
2022-11-14T21:54:06.361Z,10.77
2022-11-14T21:56:34.707Z,10.71
2022-11-14T21:59:15.519Z,10.87
2022-11-14T22:02:09.631Z,10.93
2022-11-14T22:04:36.393Z,10.82
2022-11-14T22:07:06.052Z,10.79
2022-11-14T22:09:32.906Z,10.76
2022-11-14T22:12:00.474Z,10.87
2022-11-14T22:14:27.231Z,9.92
2022-11-14T22:16:53.815Z,10.86
2022-11-14T22:19:20.555Z,10.85
2022-11-14T22:21:47.150Z,10.87
2022-11-14T22:24:13.764Z,10.88
2022-11-14T22:26:41.414Z,10.85
2022-11-14T22:29:08.842Z,10.89
2022-11-14T22:31:37.019Z,10.91
2022-11-14T22:34:03.744Z,10.95
2022-11-14T22:36:30.411Z,10.83
2022-11-14T22:38:57.396Z,11.03
2022-11-14T22:41:33.456Z,11.01
2022-11-14T22:44:01.072Z,10.90
2022-11-14T22:46:28.422Z,10.91
2022-11-14T22:48:55.551Z,10.85
2022-11-14T22:51:28.331Z,10.94
2022-11-14T22:53:57.470Z,8.57
2022-11-14T22:56:27.183Z,10.89
2022-11-14T22:58:54.011Z,10.84
2022-11-14T23:01:27.828Z,10.91
2022-11-14T23:03:56.986Z,10.91
2022-11-14T23:06:24.606Z,10.84
2022-11-14T23:08:51.471Z,10.58
2022-11-14T23:11:23.660Z,10.92
2022-11-14T23:13:53.255Z,10.92
2022-11-14T23:16:28.738Z,10.98
2022-11-14T23:18:58.118Z,10.99
2022-11-14T23:21:27.549Z,11.06
2022-11-14T23:23:55.944Z,10.86
2022-11-14T23:26:22.950Z,10.91
2022-11-14T23:28:49.619Z,10.15
2022-11-14T23:31:19.713Z,9.90
2022-11-14T23:33:47.642Z,9.67
2022-11-14T23:36:14.458Z,9.55
2022-11-14T23:38:41.400Z,9.53
2022-11-14T23:41:15.773Z,9.21
2022-11-14T23:43:42.440Z,9.60
2022-11-14T23:46:09.045Z,9.75
2022-11-14T23:48:36.115Z,9.93
2022-11-14T23:51:02.789Z,9.40
2022-11-14T23:53:30.080Z,9.20
2022-11-14T23:56:00.624Z,9.74
2022-11-14T23:58:29.168Z,9.88
